sensor_id;sensor_type;location;lat;lon;timestamp;P1;durP1;ratioP1;P2;durP2;ratioP2
14933;SDS011;7560;51.364;12.384;2022-10-16T00:02:59;1.33;;;1.10;;
14933;SDS011;7560;51.364;12.384;2022-10-16T00:08:02;1.52;;;1.20;;
14933;SDS011;7560;51.364;12.384;2022-10-16T00:13:04;1.15;;;0.98;;
14933;SDS011;7560;51.364;12.384;2022-10-16T00:18:05;1.05;;;0.95;;
14933;SDS011;7560;51.364;12.384;2022-10-16T00:23:07;1.67;;;1.10;;
14933;SDS011;7560;51.364;12.384;2022-10-16T00:28:09;1.35;;;1.10;;
14933;SDS011;7560;51.364;12.384;2022-10-16T00:33:10;1.60;;;1.10;;
14933;SDS011;7560;51.364;12.384;2022-10-16T00:38:12;1.10;;;1.00;;
14933;SDS011;7560;51.364;12.384;2022-10-16T00:43:32;1.42;;;0.93;;
14933;SDS011;7560;51.364;12.384;2022-10-16T00:48:34;1.30;;;0.90;;
14933;SDS011;7560;51.364;12.384;2022-10-16T00:53:35;1.25;;;0.82;;
14933;SDS011;7560;51.364;12.384;2022-10-16T00:58:38;0.90;;;0.90;;
14933;SDS011;7560;51.364;12.384;2022-10-16T01:03:39;2.00;;;1.25;;
14933;SDS011;7560;51.364;12.384;2022-10-16T01:14:11;1.25;;;1.10;;
14933;SDS011;7560;51.364;12.384;2022-10-16T01:19:44;1.80;;;0.82;;
14933;SDS011;7560;51.364;12.384;2022-10-16T01:24:45;1.10;;;1.00;;
14933;SDS011;7560;51.364;12.384;2022-10-16T01:29:59;1.77;;;1.02;;
14933;SDS011;7560;51.364;12.384;2022-10-16T01:35:09;2.33;;;1.10;;
14933;SDS011;7560;51.364;12.384;2022-10-16T01:40:15;1.10;;;1.00;;
14933;SDS011;7560;51.364;12.384;2022-10-16T01:45:20;3.15;;;1.45;;
14933;SDS011;7560;51.364;12.384;2022-10-16T01:50:23;1.00;;;0.90;;
14933;SDS011;7560;51.364;12.384;2022-10-16T01:55:29;1.20;;;1.10;;
14933;SDS011;7560;51.364;12.384;2022-10-16T02:00:36;1.30;;;0.80;;
14933;SDS011;7560;51.364;12.384;2022-10-16T02:05:42;1.92;;;1.05;;
14933;SDS011;7560;51.364;12.384;2022-10-16T02:10:49;1.40;;;1.25;;
14933;SDS011;7560;51.364;12.384;2022-10-16T02:15:51;2.25;;;1.23;;
14933;SDS011;7560;51.364;12.384;2022-10-16T02:21:00;1.42;;;1.17;;
14933;SDS011;7560;51.364;12.384;2022-10-16T02:26:12;1.23;;;1.13;;
14933;SDS011;7560;51.364;12.384;2022-10-16T02:31:18;0.93;;;0.90;;
14933;SDS011;7560;51.364;12.384;2022-10-16T02:36:26;0.93;;;0.93;;
14933;SDS011;7560;51.364;12.384;2022-10-16T02:41:28;1.00;;;1.00;;
14933;SDS011;7560;51.364;12.384;2022-10-16T02:46:30;1.05;;;1.05;;
14933;SDS011;7560;51.364;12.384;2022-10-16T02:51:32;3.17;;;1.10;;
14933;SDS011;7560;51.364;12.384;2022-10-16T02:56:33;3.20;;;1.40;;
14933;SDS011;7560;51.364;12.384;2022-10-16T03:01:35;1.33;;;1.13;;
14933;SDS011;7560;51.364;12.384;2022-10-16T03:06:37;1.17;;;1.17;;
14933;SDS011;7560;51.364;12.384;2022-10-16T03:11:38;2.15;;;1.63;;
14933;SDS011;7560;51.364;12.384;2022-10-16T03:16:40;1.40;;;1.30;;
14933;SDS011;7560;51.364;12.384;2022-10-16T03:21:42;1.55;;;1.25;;
14933;SDS011;7560;51.364;12.384;2022-10-16T03:26:44;1.30;;;1.20;;
14933;SDS011;7560;51.364;12.384;2022-10-16T03:31:45;1.70;;;1.35;;
14933;SDS011;7560;51.364;12.384;2022-10-16T03:36:49;3.22;;;1.30;;
14933;SDS011;7560;51.364;12.384;2022-10-16T03:41:51;1.58;;;1.38;;
14933;SDS011;7560;51.364;12.384;2022-10-16T03:46:52;1.85;;;1.20;;
14933;SDS011;7560;51.364;12.384;2022-10-16T03:51:54;1.20;;;1.10;;
14933;SDS011;7560;51.364;12.384;2022-10-16T03:56:56;2.67;;;1.45;;
14933;SDS011;7560;51.364;12.384;2022-10-16T04:01:57;1.08;;;1.08;;
14933;SDS011;7560;51.364;12.384;2022-10-16T04:06:59;1.60;;;1.17;;
14933;SDS011;7560;51.364;12.384;2022-10-16T04:12:01;2.80;;;1.30;;
14933;SDS011;7560;51.364;12.384;2022-10-16T04:17:02;1.38;;;1.27;;
14933;SDS011;7560;51.364;12.384;2022-10-16T04:22:04;1.48;;;1.38;;
14933;SDS011;7560;51.364;12.384;2022-10-16T04:27:06;1.20;;;1.10;;
14933;SDS011;7560;51.364;12.384;2022-10-16T04:32:08;1.42;;;1.33;;
14933;SDS011;7560;51.364;12.384;2022-10-16T04:37:10;2.22;;;1.55;;
14933;SDS011;7560;51.364;12.384;2022-10-16T04:42:12;2.63;;;1.77;;
14933;SDS011;7560;51.364;12.384;2022-10-16T04:47:13;1.80;;;1.70;;
14933;SDS011;7560;51.364;12.384;2022-10-16T04:52:15;1.73;;;1.63;;
14933;SDS011;7560;51.364;12.384;2022-10-16T04:57:17;1.70;;;1.60;;
14933;SDS011;7560;51.364;12.384;2022-10-16T05:02:19;2.33;;;1.60;;
14933;SDS011;7560;51.364;12.384;2022-10-16T05:07:20;2.10;;;1.50;;
14933;SDS011;7560;51.364;12.384;2022-10-16T05:12:22;3.03;;;1.70;;
14933;SDS011;7560;51.364;12.384;2022-10-16T05:17:24;1.60;;;1.50;;
14933;SDS011;7560;51.364;12.384;2022-10-16T05:22:27;2.50;;;1.40;;
14933;SDS011;7560;51.364;12.384;2022-10-16T05:27:28;1.40;;;1.30;;
14933;SDS011;7560;51.364;12.384;2022-10-16T05:32:30;1.40;;;1.30;;
14933;SDS011;7560;51.364;12.384;2022-10-16T05:37:32;1.52;;;1.42;;
14933;SDS011;7560;51.364;12.384;2022-10-16T05:42:33;1.55;;;1.45;;
14933;SDS011;7560;51.364;12.384;2022-10-16T05:47:35;2.42;;;1.65;;
14933;SDS011;7560;51.364;12.384;2022-10-16T05:52:37;1.83;;;1.40;;
14933;SDS011;7560;51.364;12.384;2022-10-16T05:57:39;1.60;;;1.50;;
14933;SDS011;7560;51.364;12.384;2022-10-16T06:02:40;1.75;;;1.40;;
14933;SDS011;7560;51.364;12.384;2022-10-16T06:07:42;2.03;;;1.20;;
14933;SDS011;7560;51.364;12.384;2022-10-16T06:12:44;1.73;;;1.50;;
14933;SDS011;7560;51.364;12.384;2022-10-16T06:17:45;2.45;;;1.40;;
14933;SDS011;7560;51.364;12.384;2022-10-16T06:22:47;1.52;;;1.30;;
14933;SDS011;7560;51.364;12.384;2022-10-16T06:27:49;2.20;;;1.48;;
14933;SDS011;7560;51.364;12.384;2022-10-16T06:32:50;2.10;;;1.40;;
14933;SDS011;7560;51.364;12.384;2022-10-16T06:37:53;1.48;;;1.20;;
14933;SDS011;7560;51.364;12.384;2022-10-16T06:42:55;2.00;;;1.30;;
14933;SDS011;7560;51.364;12.384;2022-10-16T06:47:56;1.58;;;1.33;;
14933;SDS011;7560;51.364;12.384;2022-10-16T06:52:58;1.17;;;1.08;;
14933;SDS011;7560;51.364;12.384;2022-10-16T06:58:00;2.00;;;1.10;;
14933;SDS011;7560;51.364;12.384;2022-10-16T07:03:01;2.33;;;1.20;;
14933;SDS011;7560;51.364;12.384;2022-10-16T07:08:03;2.20;;;1.38;;
14933;SDS011;7560;51.364;12.384;2022-10-16T07:13:06;1.35;;;1.20;;
14933;SDS011;7560;51.364;12.384;2022-10-16T07:18:08;2.75;;;1.30;;
14933;SDS011;7560;51.364;12.384;2022-10-16T07:23:10;1.27;;;1.20;;
14933;SDS011;7560;51.364;12.384;2022-10-16T07:28:12;1.48;;;1.20;;
14933;SDS011;7560;51.364;12.384;2022-10-16T07:33:14;1.40;;;1.30;;
14933;SDS011;7560;51.364;12.384;2022-10-16T07:38:15;4.13;;;1.20;;
14933;SDS011;7560;51.364;12.384;2022-10-16T07:43:17;2.83;;;1.20;;
14933;SDS011;7560;51.364;12.384;2022-10-16T07:48:19;1.45;;;1.10;;
14933;SDS011;7560;51.364;12.384;2022-10-16T07:53:21;1.27;;;1.10;;
14933;SDS011;7560;51.364;12.384;2022-10-16T07:58:27;1.00;;;0.90;;
14933;SDS011;7560;51.364;12.384;2022-10-16T08:03:29;0.93;;;0.90;;
14933;SDS011;7560;51.364;12.384;2022-10-16T08:08:33;1.67;;;0.82;;
14933;SDS011;7560;51.364;12.384;2022-10-16T08:13:35;1.20;;;1.00;;
14933;SDS011;7560;51.364;12.384;2022-10-16T08:18:37;1.85;;;0.75;;
14933;SDS011;7560;51.364;12.384;2022-10-16T08:23:40;0.65;;;0.65;;
14933;SDS011;7560;51.364;12.384;2022-10-16T08:28:42;0.52;;;0.52;;
14933;SDS011;7560;51.364;12.384;2022-10-16T08:33:44;0.60;;;0.60;;
14933;SDS011;7560;51.364;12.384;2022-10-16T08:38:48;2.33;;;0.77;;
14933;SDS011;7560;51.364;12.384;2022-10-16T08:49:19;0.50;;;0.50;;
14933;SDS011;7560;51.364;12.384;2022-10-16T08:54:23;2.58;;;0.63;;
14933;SDS011;7560;51.364;12.384;2022-10-16T08:59:46;1.35;;;0.60;;
14933;SDS011;7560;51.364;12.384;2022-10-16T09:04:52;4.30;;;0.75;;
14933;SDS011;7560;51.364;12.384;2022-10-16T09:10:16;1.42;;;0.80;;
14933;SDS011;7560;51.364;12.384;2022-10-16T09:15:39;1.73;;;0.50;;
14933;SDS011;7560;51.364;12.384;2022-10-16T09:26:20;0.75;;;0.50;;
14933;SDS011;7560;51.364;12.384;2022-10-16T09:31:24;1.17;;;0.50;;
14933;SDS011;7560;51.364;12.384;2022-10-16T09:36:25;1.70;;;0.52;;
14933;SDS011;7560;51.364;12.384;2022-10-16T09:41:30;0.45;;;0.45;;
14933;SDS011;7560;51.364;12.384;2022-10-16T09:46:35;0.65;;;0.65;;
14933;SDS011;7560;51.364;12.384;2022-10-16T09:51:39;0.95;;;0.60;;
14933;SDS011;7560;51.364;12.384;2022-10-16T09:56:41;0.60;;;0.60;;
14933;SDS011;7560;51.364;12.384;2022-10-16T10:06:50;0.93;;;0.60;;
14933;SDS011;7560;51.364;12.384;2022-10-16T10:11:57;0.80;;;0.77;;
14933;SDS011;7560;51.364;12.384;2022-10-16T10:22:17;0.70;;;0.70;;
14933;SDS011;7560;51.364;12.384;2022-10-16T10:27:32;0.80;;;0.80;;
14933;SDS011;7560;51.364;12.384;2022-10-16T10:32:50;0.65;;;0.60;;
14933;SDS011;7560;51.364;12.384;2022-10-16T10:43:56;0.80;;;0.80;;
14933;SDS011;7560;51.364;12.384;2022-10-16T10:49:17;1.85;;;0.77;;
14933;SDS011;7560;51.364;12.384;2022-10-16T11:15:47;1.77;;;0.98;;
14933;SDS011;7560;51.364;12.384;2022-10-16T11:21:06;1.40;;;0.80;;
14933;SDS011;7560;51.364;12.384;2022-10-16T11:26:16;0.90;;;0.90;;
14933;SDS011;7560;51.364;12.384;2022-10-16T11:31:45;1.15;;;1.10;;
14933;SDS011;7560;51.364;12.384;2022-10-16T11:36:57;1.85;;;1.20;;
14933;SDS011;7560;51.364;12.384;2022-10-16T11:47:43;1.10;;;1.02;;
14933;SDS011;7560;51.364;12.384;2022-10-16T11:58:27;1.20;;;1.08;;
14933;SDS011;7560;51.364;12.384;2022-10-16T12:03:44;3.30;;;1.30;;
14933;SDS011;7560;51.364;12.384;2022-10-16T12:08:52;1.30;;;1.20;;
14933;SDS011;7560;51.364;12.384;2022-10-16T12:14:16;1.50;;;1.10;;
14933;SDS011;7560;51.364;12.384;2022-10-16T12:19:21;1.02;;;1.00;;
14933;SDS011;7560;51.364;12.384;2022-10-16T12:24:30;2.00;;;1.20;;
14933;SDS011;7560;51.364;12.384;2022-10-16T12:29:43;1.52;;;1.10;;
14933;SDS011;7560;51.364;12.384;2022-10-16T12:34:45;1.73;;;1.27;;
14933;SDS011;7560;51.364;12.384;2022-10-16T12:39:49;1.10;;;0.90;;
14933;SDS011;7560;51.364;12.384;2022-10-16T12:44:52;0.85;;;0.85;;
14933;SDS011;7560;51.364;12.384;2022-10-16T12:49:55;1.35;;;1.00;;
14933;SDS011;7560;51.364;12.384;2022-10-16T12:54:57;1.67;;;0.80;;
14933;SDS011;7560;51.364;12.384;2022-10-16T13:05:15;0.70;;;0.70;;
14933;SDS011;7560;51.364;12.384;2022-10-16T13:15:29;0.88;;;0.88;;
14933;SDS011;7560;51.364;12.384;2022-10-16T13:21:11;1.40;;;0.77;;
14933;SDS011;7560;51.364;12.384;2022-10-16T13:31:41;0.93;;;0.90;;
14933;SDS011;7560;51.364;12.384;2022-10-16T13:36:46;6.10;;;1.20;;
14933;SDS011;7560;51.364;12.384;2022-10-16T13:42:04;0.93;;;0.77;;
14933;SDS011;7560;51.364;12.384;2022-10-16T13:47:22;0.60;;;0.57;;
14933;SDS011;7560;51.364;12.384;2022-10-16T13:52:26;0.60;;;0.60;;
14933;SDS011;7560;51.364;12.384;2022-10-16T13:57:29;0.73;;;0.60;;
14933;SDS011;7560;51.364;12.384;2022-10-16T14:02:31;0.77;;;0.70;;
14933;SDS011;7560;51.364;12.384;2022-10-16T14:07:40;0.85;;;0.70;;
14933;SDS011;7560;51.364;12.384;2022-10-16T14:12:43;0.75;;;0.75;;
14933;SDS011;7560;51.364;12.384;2022-10-16T14:17:45;0.80;;;0.80;;
14933;SDS011;7560;51.364;12.384;2022-10-16T14:22:57;0.80;;;0.80;;
14933;SDS011;7560;51.364;12.384;2022-10-16T14:28:13;1.35;;;0.82;;
14933;SDS011;7560;51.364;12.384;2022-10-16T14:33:20;1.00;;;0.90;;
14933;SDS011;7560;51.364;12.384;2022-10-16T14:38:41;2.22;;;0.90;;
14933;SDS011;7560;51.364;12.384;2022-10-16T14:44:00;1.60;;;1.40;;
14933;SDS011;7560;51.364;12.384;2022-10-16T14:54:13;3.28;;;1.60;;
14933;SDS011;7560;51.364;12.384;2022-10-16T14:59:17;1.25;;;1.15;;
14933;SDS011;7560;51.364;12.384;2022-10-16T15:04:20;1.40;;;0.95;;
14933;SDS011;7560;51.364;12.384;2022-10-16T15:09:22;1.38;;;1.27;;
14933;SDS011;7560;51.364;12.384;2022-10-16T15:14:23;2.13;;;1.05;;
14933;SDS011;7560;51.364;12.384;2022-10-16T15:19:25;1.63;;;1.10;;
14933;SDS011;7560;51.364;12.384;2022-10-16T15:24:27;7.82;;;1.70;;
14933;SDS011;7560;51.364;12.384;2022-10-16T15:29:28;1.67;;;1.40;;
14933;SDS011;7560;51.364;12.384;2022-10-16T15:34:30;2.95;;;1.30;;
14933;SDS011;7560;51.364;12.384;2022-10-16T15:39:32;5.05;;;1.52;;
14933;SDS011;7560;51.364;12.384;2022-10-16T15:44:40;1.88;;;1.35;;
14933;SDS011;7560;51.364;12.384;2022-10-16T15:49:42;2.00;;;1.48;;
14933;SDS011;7560;51.364;12.384;2022-10-16T15:54:43;2.47;;;1.70;;
14933;SDS011;7560;51.364;12.384;2022-10-16T15:59:50;1.77;;;1.63;;
14933;SDS011;7560;51.364;12.384;2022-10-16T16:04:52;3.30;;;1.77;;
14933;SDS011;7560;51.364;12.384;2022-10-16T16:09:53;11.95;;;2.17;;
14933;SDS011;7560;51.364;12.384;2022-10-16T16:14:55;4.25;;;2.30;;
14933;SDS011;7560;51.364;12.384;2022-10-16T16:20:02;7.57;;;3.38;;
14933;SDS011;7560;51.364;12.384;2022-10-16T16:25:05;12.93;;;2.92;;
14933;SDS011;7560;51.364;12.384;2022-10-16T16:30:09;6.35;;;3.72;;
14933;SDS011;7560;51.364;12.384;2022-10-16T16:35:19;15.43;;;2.95;;
14933;SDS011;7560;51.364;12.384;2022-10-16T16:40:21;2.58;;;2.17;;
14933;SDS011;7560;51.364;12.384;2022-10-16T16:45:23;4.55;;;2.78;;
14933;SDS011;7560;51.364;12.384;2022-10-16T16:50:29;4.05;;;3.25;;
14933;SDS011;7560;51.364;12.384;2022-10-16T16:55:35;5.03;;;2.97;;
14933;SDS011;7560;51.364;12.384;2022-10-16T17:00:37;6.78;;;2.95;;
14933;SDS011;7560;51.364;12.384;2022-10-16T17:11:12;5.22;;;3.20;;
14933;SDS011;7560;51.364;12.384;2022-10-16T17:16:16;7.22;;;3.38;;
14933;SDS011;7560;51.364;12.384;2022-10-16T17:21:19;5.22;;;3.08;;
14933;SDS011;7560;51.364;12.384;2022-10-16T17:26:21;4.03;;;3.03;;
14933;SDS011;7560;51.364;12.384;2022-10-16T17:31:25;4.95;;;2.70;;
14933;SDS011;7560;51.364;12.384;2022-10-16T17:36:33;4.00;;;2.80;;
14933;SDS011;7560;51.364;12.384;2022-10-16T17:41:36;6.75;;;3.50;;
14933;SDS011;7560;51.364;12.384;2022-10-16T17:46:38;7.97;;;4.63;;
14933;SDS011;7560;51.364;12.384;2022-10-16T17:51:41;8.15;;;5.22;;
14933;SDS011;7560;51.364;12.384;2022-10-16T17:56:44;8.55;;;5.30;;
14933;SDS011;7560;51.364;12.384;2022-10-16T18:01:47;5.90;;;4.07;;
14933;SDS011;7560;51.364;12.384;2022-10-16T18:06:49;7.10;;;4.80;;
14933;SDS011;7560;51.364;12.384;2022-10-16T18:11:51;19.42;;;5.65;;
14933;SDS011;7560;51.364;12.384;2022-10-16T18:16:59;5.57;;;3.90;;
14933;SDS011;7560;51.364;12.384;2022-10-16T18:22:01;7.03;;;3.58;;
14933;SDS011;7560;51.364;12.384;2022-10-16T18:27:03;11.55;;;4.35;;
14933;SDS011;7560;51.364;12.384;2022-10-16T18:32:04;7.75;;;4.15;;
14933;SDS011;7560;51.364;12.384;2022-10-16T18:37:06;6.45;;;4.22;;
14933;SDS011;7560;51.364;12.384;2022-10-16T18:42:08;6.88;;;4.20;;
14933;SDS011;7560;51.364;12.384;2022-10-16T18:47:10;5.82;;;3.97;;
14933;SDS011;7560;51.364;12.384;2022-10-16T18:52:12;7.57;;;4.32;;
14933;SDS011;7560;51.364;12.384;2022-10-16T18:57:13;8.80;;;4.20;;
14933;SDS011;7560;51.364;12.384;2022-10-16T19:02:15;6.10;;;4.13;;
14933;SDS011;7560;51.364;12.384;2022-10-16T19:07:17;5.95;;;4.45;;
14933;SDS011;7560;51.364;12.384;2022-10-16T19:12:18;6.30;;;4.80;;
14933;SDS011;7560;51.364;12.384;2022-10-16T19:17:20;5.88;;;4.15;;
14933;SDS011;7560;51.364;12.384;2022-10-16T19:22:21;8.93;;;4.75;;
14933;SDS011;7560;51.364;12.384;2022-10-16T19:27:49;5.97;;;4.60;;
14933;SDS011;7560;51.364;12.384;2022-10-16T19:32:52;7.35;;;5.35;;
14933;SDS011;7560;51.364;12.384;2022-10-16T19:37:54;6.28;;;4.75;;
14933;SDS011;7560;51.364;12.384;2022-10-16T19:42:55;8.43;;;4.93;;
14933;SDS011;7560;51.364;12.384;2022-10-16T19:47:57;7.13;;;4.70;;
14933;SDS011;7560;51.364;12.384;2022-10-16T19:52:58;7.13;;;4.70;;
14933;SDS011;7560;51.364;12.384;2022-10-16T19:58:00;6.38;;;4.85;;
14933;SDS011;7560;51.364;12.384;2022-10-16T20:03:02;6.35;;;4.80;;
14933;SDS011;7560;51.364;12.384;2022-10-16T20:08:04;7.40;;;4.50;;
14933;SDS011;7560;51.364;12.384;2022-10-16T20:13:06;7.03;;;4.78;;
14933;SDS011;7560;51.364;12.384;2022-10-16T20:18:08;5.88;;;4.22;;
14933;SDS011;7560;51.364;12.384;2022-10-16T20:23:10;5.80;;;4.50;;
14933;SDS011;7560;51.364;12.384;2022-10-16T20:28:13;8.90;;;5.05;;
14933;SDS011;7560;51.364;12.384;2022-10-16T20:33:18;7.57;;;4.45;;
14933;SDS011;7560;51.364;12.384;2022-10-16T20:38:20;6.55;;;4.55;;
14933;SDS011;7560;51.364;12.384;2022-10-16T20:43:22;11.07;;;4.80;;
14933;SDS011;7560;51.364;12.384;2022-10-16T20:48:24;4.97;;;3.75;;
14933;SDS011;7560;51.364;12.384;2022-10-16T20:53:26;7.45;;;3.85;;
14933;SDS011;7560;51.364;12.384;2022-10-16T20:58:28;4.82;;;3.50;;
14933;SDS011;7560;51.364;12.384;2022-10-16T21:03:29;6.88;;;3.92;;
14933;SDS011;7560;51.364;12.384;2022-10-16T21:08:35;5.65;;;3.40;;
14933;SDS011;7560;51.364;12.384;2022-10-16T21:13:39;11.20;;;5.80;;
14933;SDS011;7560;51.364;12.384;2022-10-16T21:18:41;6.75;;;4.18;;
14933;SDS011;7560;51.364;12.384;2022-10-16T21:23:45;5.82;;;4.15;;
14933;SDS011;7560;51.364;12.384;2022-10-16T21:28:47;5.45;;;3.95;;
14933;SDS011;7560;51.364;12.384;2022-10-16T21:33:49;6.03;;;3.92;;
14933;SDS011;7560;51.364;12.384;2022-10-16T21:38:51;6.97;;;3.88;;
14933;SDS011;7560;51.364;12.384;2022-10-16T21:43:54;6.00;;;4.20;;
14933;SDS011;7560;51.364;12.384;2022-10-16T21:49:00;8.70;;;4.47;;
14933;SDS011;7560;51.364;12.384;2022-10-16T21:54:05;6.60;;;3.80;;
14933;SDS011;7560;51.364;12.384;2022-10-16T21:59:12;6.05;;;4.00;;
14933;SDS011;7560;51.364;12.384;2022-10-16T22:04:15;6.05;;;3.88;;
14933;SDS011;7560;51.364;12.384;2022-10-16T22:09:17;5.03;;;3.75;;
14933;SDS011;7560;51.364;12.384;2022-10-16T22:14:19;6.88;;;3.95;;
14933;SDS011;7560;51.364;12.384;2022-10-16T22:19:22;5.05;;;3.90;;
14933;SDS011;7560;51.364;12.384;2022-10-16T22:24:23;4.05;;;3.58;;
14933;SDS011;7560;51.364;12.384;2022-10-16T22:29:25;5.82;;;3.38;;
14933;SDS011;7560;51.364;12.384;2022-10-16T22:34:27;6.70;;;4.60;;
14933;SDS011;7560;51.364;12.384;2022-10-16T22:39:29;6.13;;;4.75;;
14933;SDS011;7560;51.364;12.384;2022-10-16T22:44:31;9.25;;;4.97;;
14933;SDS011;7560;51.364;12.384;2022-10-16T22:49:32;5.60;;;4.60;;
14933;SDS011;7560;51.364;12.384;2022-10-16T22:54:34;5.15;;;4.18;;
14933;SDS011;7560;51.364;12.384;2022-10-16T22:59:36;5.18;;;3.83;;
14933;SDS011;7560;51.364;12.384;2022-10-16T23:04:37;5.75;;;3.90;;
14933;SDS011;7560;51.364;12.384;2022-10-16T23:09:39;6.00;;;4.05;;
14933;SDS011;7560;51.364;12.384;2022-10-16T23:14:41;3.88;;;3.45;;
14933;SDS011;7560;51.364;12.384;2022-10-16T23:19:42;4.07;;;3.67;;
14933;SDS011;7560;51.364;12.384;2022-10-16T23:24:44;4.15;;;3.75;;
14933;SDS011;7560;51.364;12.384;2022-10-16T23:29:46;5.35;;;3.80;;
14933;SDS011;7560;51.364;12.384;2022-10-16T23:34:47;4.47;;;3.50;;
14933;SDS011;7560;51.364;12.384;2022-10-16T23:39:49;5.47;;;4.38;;
14933;SDS011;7560;51.364;12.384;2022-10-16T23:44:51;7.50;;;4.20;;
14933;SDS011;7560;51.364;12.384;2022-10-16T23:49:53;6.80;;;4.43;;
14933;SDS011;7560;51.364;12.384;2022-10-16T23:54:55;4.60;;;4.07;;
14933;SDS011;7560;51.364;12.384;2022-10-16T23:59:57;5.18;;;4.05;;
